Time;durP1;ratioP1;P1;durP2;ratioP2;P2;SDS_P1;SDS_P2;PMS_P1;PMS_P2;Temp;Humidity;BMP_temperature;BMP_pressure;BME280_temperature;BME280_humidity;BME280_pressure;Samples;Min_cycle;Max_cycle;Signal;HPM_P1;HPM_P2
2022/07/22 00:01:42;;;;;;;6.93;6.23;;;28.80;47.70;;;;;;5047291;28;20190;-82
2022/07/22 00:04:07;;;;;;;6.30;5.77;;;28.80;47.70;;;;;;5048266;28;20207;-82
2022/07/22 00:06:34;;;;;;;6.73;6.13;;;28.80;47.70;;;;;;5047218;28;20179;-82
2022/07/22 00:09:00;;;;;;;6.50;5.90;;;28.90;47.70;;;;;;5047950;28;20179;-82
2022/07/22 00:11:26;;;;;;;6.70;6.20;;;28.80;47.70;;;;;;5046539;28;20410;-82
2022/07/22 00:13:53;;;;;;;6.03;5.53;;;28.80;47.70;;;;;;5047317;28;20444;-82
2022/07/22 00:16:19;;;;;;;6.70;6.10;;;28.80;47.70;;;;;;5048349;28;20402;-82
2022/07/22 00:18:45;;;;;;;6.77;6.27;;;28.80;47.70;;;;;;5047696;28;20452;-82
2022/07/22 00:21:11;;;;;;;6.43;5.80;;;28.80;47.70;;;;;;5047878;28;20413;-82
2022/07/22 00:23:37;;;;;;;6.20;5.67;;;28.80;47.70;;;;;;5065524;28;20499;-82
2022/07/22 00:26:03;;;;;;;6.50;6.00;;;28.80;47.70;;;;;;5047937;28;20488;-82
2022/07/22 00:28:29;;;;;;;6.70;6.13;;;28.80;47.70;;;;;;5065011;28;20406;-81
2022/07/22 00:30:56;;;;;;;6.90;6.27;;;28.80;47.60;;;;;;5048368;28;20425;-81
2022/07/22 00:33:22;;;;;;;7.30;6.70;;;28.80;47.70;;;;;;5048417;28;20198;-81
2022/07/22 00:35:48;;;;;;;6.53;5.93;;;28.80;47.70;;;;;;5050855;28;20441;-81
2022/07/22 00:38:14;;;;;;;6.43;5.93;;;28.80;47.70;;;;;;5051097;28;20509;-81
2022/07/22 00:40:40;;;;;;;6.70;6.10;;;28.80;47.70;;;;;;5050843;28;20454;-81
2022/07/22 00:43:06;;;;;;;8.33;7.53;;;28.80;47.70;;;;;;5051283;28;20247;-81
2022/07/22 00:45:32;;;;;;;6.60;6.00;;;28.80;47.70;;;;;;5050866;28;20414;-81
2022/07/22 00:47:58;;;;;;;6.47;5.97;;;28.80;47.70;;;;;;5050659;28;20179;-81
2022/07/22 00:50:25;;;;;;;6.97;6.37;;;28.80;47.70;;;;;;5068413;28;20410;-82
2022/07/22 00:52:51;;;;;;;7.10;6.40;;;28.80;47.70;;;;;;5050253;28;20421;-83
2022/07/22 00:55:20;;;;;;;6.30;5.70;;;28.80;47.70;;;;;;5051049;28;20456;-83
2022/07/22 01:04:40;;;;;;;7.97;7.27;;;28.80;47.70;;;;;;4969451;29;20446;-81
2022/07/22 01:17:03;;;;;;;7.00;6.30;;;28.70;47.70;;;;;;4948676;29;20494;-81
2022/07/22 01:19:28;;;;;;;6.17;5.63;;;28.70;47.80;;;;;;4957798;29;20545;-81
2022/07/22 01:21:56;;;;;;;7.37;6.77;;;28.70;47.80;;;;;;4951100;29;20426;-81
2022/07/22 01:24:22;;;;;;;6.83;6.23;;;28.70;47.80;;;;;;4967484;29;20190;-81
2022/07/22 01:26:48;;;;;;;6.23;5.73;;;28.70;47.80;;;;;;4967502;29;20445;-82
2022/07/22 01:29:14;;;;;;;8.87;7.27;;;28.70;47.80;;;;;;4951361;29;20258;-82
2022/07/22 01:31:52;;;;;;;6.97;6.37;;;28.70;47.80;;;;;;4967189;29;20186;-81
2022/07/22 01:34:20;;;;;;;6.73;5.97;;;28.70;47.80;;;;;;4951523;29;20418;-83
2022/07/22 01:36:48;;;;;;;7.13;6.43;;;28.70;47.80;;;;;;4967333;29;20429;-83
2022/07/22 01:39:15;;;;;;;6.17;5.67;;;28.70;47.80;;;;;;4950865;29;20875;-83
2022/07/22 01:41:41;;;;;;;6.70;6.00;;;28.70;47.80;;;;;;4951408;29;20418;-83
2022/07/22 01:44:07;;;;;;;5.87;5.47;;;28.70;47.80;;;;;;5011513;28;20461;-83
2022/07/22 01:46:33;;;;;;;7.23;6.63;;;28.70;47.80;;;;;;5049489;28;20440;-83
2022/07/22 01:49:02;;;;;;;6.73;6.13;;;28.70;47.80;;;;;;5050299;28;20201;-83
2022/07/22 01:51:28;;;;;;;6.83;6.23;;;28.70;47.80;;;;;;5050388;28;20489;-83
2022/07/22 01:53:53;;;;;;;6.70;6.10;;;28.80;47.90;;;;;;5050548;28;20414;-83
2022/07/22 01:56:19;;;;;;;6.50;6.00;;;28.70;47.80;;;;;;5069148;28;20409;-83
2022/07/22 01:58:45;;;;;;;7.10;6.50;;;28.70;47.80;;;;;;5050529;28;20183;-82
2022/07/22 02:01:11;;;;;;;7.10;6.50;;;28.80;47.90;;;;;;5050486;28;20443;-83
2022/07/22 02:03:37;;;;;;;6.97;6.37;;;28.70;47.80;;;;;;5069510;28;20198;-83
2022/07/22 02:06:03;;;;;;;6.97;6.37;;;28.70;47.80;;;;;;5068636;28;20206;-82
2022/07/22 02:08:29;;;;;;;7.47;6.87;;;28.70;47.80;;;;;;5069208;28;20202;-82
2022/07/22 02:10:55;;;;;;;6.50;5.97;;;28.70;47.90;;;;;;5051205;28;20517;-83
2022/07/22 02:13:21;;;;;;;6.33;5.73;;;28.70;47.80;;;;;;5050901;28;20313;-83
2022/07/22 02:15:47;;;;;;;6.20;5.70;;;28.70;47.90;;;;;;5050598;28;20603;-83
2022/07/22 02:18:15;;;;;;;6.07;5.47;;;28.70;47.80;;;;;;5050924;28;20414;-83
2022/07/22 02:20:42;;;;;;;7.53;6.10;;;28.70;47.80;;;;;;5051536;28;20658;-83
2022/07/22 02:23:10;;;;;;;7.10;6.50;;;28.70;47.80;;;;;;5051474;28;20509;-83
2022/07/22 02:25:37;;;;;;;6.37;5.87;;;28.70;47.90;;;;;;5051206;28;20439;-83
2022/07/22 02:28:03;;;;;;;5.87;5.40;;;28.70;47.90;;;;;;5051048;28;20422;-83
2022/07/22 02:30:30;;;;;;;6.87;6.27;;;28.70;47.90;;;;;;5050673;28;20513;-84
2022/07/22 02:32:56;;;;;;;7.13;6.53;;;28.70;47.80;;;;;;5051191;28;20878;-83
2022/07/22 02:35:22;;;;;;;6.77;6.17;;;28.70;47.90;;;;;;5068013;28;20416;-83
2022/07/22 02:37:48;;;;;;;6.30;5.80;;;28.70;47.80;;;;;;5050967;28;20414;-83
2022/07/22 02:40:14;;;;;;;6.50;6.00;;;28.70;47.80;;;;;;5050760;28;20183;-83
2022/07/22 02:42:40;;;;;;;6.07;5.57;;;28.70;47.90;;;;;;5050317;28;20446;-83
2022/07/22 02:48:28;;;;;;;6.77;6.07;;;28.70;47.80;;;;;;5068989;28;20463;-83
2022/07/22 02:50:54;;;;;;;7.20;6.50;;;28.70;47.90;;;;;;5051233;28;20418;-83
2022/07/22 02:53:20;;;;;;;7.37;6.67;;;28.70;47.90;;;;;;5050464;28;20187;-83
2022/07/22 02:55:46;;;;;;;6.80;6.20;;;28.70;47.90;;;;;;5068133;28;20406;-83
2022/07/22 02:58:18;;;;;;;7.00;6.40;;;28.70;47.90;;;;;;5050991;28;20421;-83
2022/07/22 03:00:44;;;;;;;6.80;6.30;;;28.70;47.90;;;;;;5050881;28;20179;-83
2022/07/22 03:03:10;;;;;;;6.20;5.70;;;28.70;47.80;;;;;;5050447;28;20454;-81
2022/07/22 03:05:36;;;;;;;7.23;6.63;;;28.70;47.80;;;;;;5067707;28;20202;-83
2022/07/22 03:08:02;;;;;;;6.77;6.27;;;28.70;47.80;;;;;;5050569;28;20178;-83
2022/07/22 03:10:28;;;;;;;6.57;5.97;;;28.70;47.80;;;;;;5068391;28;20427;-83
2022/07/22 03:12:54;;;;;;;7.23;6.30;;;28.70;47.80;;;;;;5050728;28;20418;-83
2022/07/22 03:15:20;;;;;;;7.37;6.70;;;28.60;47.80;;;;;;5050488;28;20413;-84
2022/07/22 03:17:46;;;;;;;6.37;5.80;;;28.70;47.80;;;;;;5068898;28;20205;-83
2022/07/22 03:20:12;;;;;;;6.57;6.07;;;28.70;47.60;;;;;;5050752;28;20472;-83
2022/07/22 03:22:38;;;;;;;6.20;5.70;;;28.60;47.50;;;;;;5050017;28;20464;-83
2022/07/22 03:25:05;;;;;;;7.20;6.60;;;28.70;47.60;;;;;;5050928;28;20430;-83
2022/07/22 03:27:31;;;;;;;6.70;6.10;;;28.60;47.50;;;;;;5050154;28;20420;-83
2022/07/22 03:29:59;;;;;;;6.53;5.93;;;28.60;47.50;;;;;;5049872;28;20441;-84
2022/07/22 03:32:25;;;;;;;7.73;6.50;;;28.60;47.50;;;;;;5068492;28;20492;-83
2022/07/22 03:38:13;;;;;;;6.77;6.17;;;28.60;47.50;;;;;;5058350;28;20247;-83
2022/07/22 03:40:39;;;;;;;7.00;6.40;;;28.60;47.50;;;;;;5041078;28;20413;-83
2022/07/22 03:46:27;;;;;;;6.57;6.07;;;28.60;47.50;;;;;;5057452;28;20404;-83
2022/07/22 03:48:59;;;;;;;7.13;6.53;;;28.50;47.40;;;;;;5056577;28;20413;-83
2022/07/22 03:51:25;;;;;;;8.20;7.50;;;28.50;47.40;;;;;;5027772;28;20493;-83
2022/07/22 03:53:54;;;;;;;7.50;6.40;;;28.50;47.40;;;;;;5040758;28;20421;-83
2022/07/22 03:56:22;;;;;;;6.87;6.30;;;28.50;47.40;;;;;;5042616;28;20425;-83
2022/07/22 03:58:51;;;;;;;7.07;6.47;;;28.50;47.40;;;;;;5049247;28;20843;-82
2022/07/22 04:01:20;;;;;;;6.93;6.33;;;28.50;47.40;;;;;;5048773;28;20410;-83
2022/07/22 04:03:49;;;;;;;6.80;6.20;;;28.50;47.40;;;;;;5048815;28;20484;-83
2022/07/22 04:06:16;;;;;;;6.40;5.80;;;28.50;47.40;;;;;;5048234;28;20414;-83
2022/07/22 04:08:41;;;;;;;6.90;6.30;;;28.50;47.30;;;;;;5049971;28;20418;-83
2022/07/22 04:11:07;;;;;;;7.43;6.83;;;28.50;47.30;;;;;;5070281;28;20406;-83
2022/07/22 04:13:33;;;;;;;7.03;6.40;;;28.50;47.30;;;;;;5052834;28;20274;-83
2022/07/22 04:15:59;;;;;;;6.70;6.13;;;28.50;47.30;;;;;;5052228;28;20198;-83
2022/07/22 04:18:25;;;;;;;7.20;6.60;;;28.50;47.30;;;;;;5053028;28;20418;-84
2022/07/22 04:20:51;;;;;;;6.77;6.27;;;28.50;47.40;;;;;;5053075;28;20638;-83
2022/07/22 04:23:20;;;;;;;6.93;6.33;;;28.50;47.50;;;;;;5052360;28;20632;-83
2022/07/22 04:25:46;;;;;;;6.20;5.70;;;28.50;47.50;;;;;;5052750;28;20186;-84
2022/07/22 04:28:12;;;;;;;5.80;5.30;;;28.50;47.60;;;;;;5052977;28;20417;-82
2022/07/22 04:30:41;;;;;;;7.20;6.60;;;28.50;47.60;;;;;;5053078;28;20445;-83
2022/07/22 04:33:08;;;;;;;6.67;6.17;;;28.50;47.60;;;;;;5053262;28;20843;-83
2022/07/22 04:35:38;;;;;;;7.33;6.57;;;28.50;47.60;;;;;;5053414;28;20417;-83
2022/07/22 04:38:07;;;;;;;5.93;5.43;;;28.60;47.70;;;;;;5052564;28;20447;-82
2022/07/22 04:40:33;;;;;;;5.90;5.40;;;28.50;47.60;;;;;;5053182;28;20452;-82
2022/07/22 04:42:59;;;;;;;6.13;5.63;;;28.50;47.60;;;;;;5070446;28;20470;-83
2022/07/22 04:45:26;;;;;;;6.87;6.27;;;28.50;47.60;;;;;;5053394;28;20182;-83
2022/07/22 04:47:58;;;;;;;6.53;5.93;;;28.50;47.60;;;;;;5053139;28;20500;-83
2022/07/22 04:53:25;;;;;;;7.17;6.47;;;28.50;47.70;;;;;;5056317;28;20410;-82
2022/07/22 04:55:54;;;;;;;7.00;6.40;;;28.50;47.70;;;;;;5052779;28;20831;-82
2022/07/22 04:58:21;;;;;;;8.20;7.40;;;28.50;47.80;;;;;;5053311;28;20851;-83
2022/07/22 05:00:50;;;;;;;6.93;6.33;;;28.50;47.80;;;;;;5053297;28;20414;-84
2022/07/22 05:03:35;;;;;;;6.87;6.30;;;28.60;47.80;;;;;;5069597;28;20445;-81
2022/07/22 05:06:04;;;;;;;7.30;6.70;;;28.60;47.80;;;;;;5052253;28;20495;-82
2022/07/22 05:08:30;;;;;;;8.20;6.53;;;28.60;47.80;;;;;;5068866;28;20428;-82
2022/07/22 05:10:56;;;;;;;7.20;6.63;;;28.60;47.80;;;;;;5068826;28;20825;-83
2022/07/22 05:13:25;;;;;;;7.63;6.93;;;28.60;47.90;;;;;;5051762;28;20444;-81
2022/07/22 05:15:51;;;;;;;8.10;7.43;;;28.60;47.80;;;;;;5051040;28;20583;-83
2022/07/22 05:18:17;;;;;;;7.23;6.63;;;28.60;47.70;;;;;;5051360;28;20428;-82
2022/07/22 05:20:43;;;;;;;8.47;7.63;;;28.60;47.70;;;;;;5068163;28;20405;-84
2022/07/22 05:26:33;;;;;;;7.33;6.67;;;28.60;47.60;;;;;;5068844;28;20487;-84
2022/07/22 05:28:59;;;;;;;6.90;6.30;;;28.60;47.70;;;;;;5068569;28;20413;-83
2022/07/22 05:31:27;;;;;;;6.40;5.87;;;28.60;47.70;;;;;;5052412;28;20873;-83
2022/07/22 05:33:53;;;;;;;6.97;6.37;;;28.60;47.70;;;;;;5052301;28;20420;-83
2022/07/22 05:36:19;;;;;;;6.80;6.27;;;28.60;47.70;;;;;;5052724;28;20734;-88
2022/07/22 05:42:11;;;;;;;7.27;6.67;;;28.70;47.70;;;;;;5069548;28;20159;-84
2022/07/22 05:44:40;;;;;;;7.10;6.50;;;28.60;47.70;;;;;;5051994;28;20441;-85
2022/07/22 05:47:06;;;;;;;7.20;6.60;;;28.60;47.60;;;;;;5052626;28;20406;-84
2022/07/22 05:49:40;;;;;;;7.63;6.83;;;28.60;47.70;;;;;;5053153;28;20444;-84
2022/07/22 05:52:06;;;;;;;7.07;6.47;;;28.60;47.70;;;;;;5050994;28;20238;-84
2022/07/22 05:54:32;;;;;;;8.60;7.80;;;28.60;47.70;;;;;;5051048;28;20716;-84
2022/07/22 05:56:59;;;;;;;7.37;6.77;;;28.60;47.70;;;;;;5050500;28;20194;-84
2022/07/22 05:59:34;;;;;;;6.77;6.17;;;28.60;47.70;;;;;;5050925;28;20485;-84
2022/07/22 06:02:00;;;;;;;6.93;6.33;;;28.70;47.70;;;;;;5050922;28;20409;-84
2022/07/22 06:04:44;;;;;;;6.83;6.23;;;28.60;47.70;;;;;;5050969;28;20456;-85
2022/07/22 06:07:32;;;;;;;6.50;6.00;;;28.60;47.70;;;;;;5068125;28;20159;-84
2022/07/22 06:10:01;;;;;;;7.30;6.37;;;28.60;48.10;;;;;;5050617;28;20410;-84
2022/07/22 06:12:53;;;;;;;6.80;6.20;;;28.60;47.70;;;;;;5050894;28;20420;-84
2022/07/22 06:15:23;;;;;;;9.70;6.23;;;28.60;47.70;;;;;;5013821;28;20872;-84
2022/07/22 06:17:51;;;;;;;7.57;6.50;;;28.60;47.80;;;;;;5050845;28;20460;-84
2022/07/22 06:20:38;;;;;;;6.90;6.30;;;28.60;47.80;;;;;;5049998;28;20413;-84
2022/07/22 06:23:04;;;;;;;6.00;5.50;;;28.60;47.80;;;;;;5050351;28;20450;-84
2022/07/22 06:25:29;;;;;;;6.80;6.07;;;28.60;47.80;;;;;;5050572;28;20413;-84
2022/07/22 06:27:55;;;;;;;7.53;5.90;;;28.60;47.80;;;;;;5050247;28;20182;-84
2022/07/22 06:30:21;;;;;;;6.17;5.67;;;28.60;47.80;;;;;;5050229;28;20171;-84
2022/07/22 06:32:50;;;;;;;6.00;5.30;;;28.60;47.80;;;;;;5049807;28;20409;-83
2022/07/22 06:35:16;;;;;;;6.27;5.80;;;28.60;47.80;;;;;;5051084;28;20249;-85
2022/07/22 06:37:43;;;;;;;5.97;5.47;;;28.60;47.80;;;;;;5051614;28;20417;-82
2022/07/22 06:40:12;;;;;;;5.80;5.30;;;28.60;47.80;;;;;;5050769;28;20421;-84
2022/07/22 06:49:08;;;;;;;5.67;5.17;;;28.60;47.80;;;;;;5068977;28;20396;-84
2022/07/22 06:51:43;;;;;;;6.07;5.47;;;28.60;47.90;;;;;;5050952;28;20416;-84
2022/07/22 06:54:14;;;;;;;5.73;5.23;;;28.60;47.90;;;;;;5047282;28;20908;-85
2022/07/22 06:56:41;;;;;;;5.70;5.20;;;28.60;47.90;;;;;;5049971;28;20694;-85
2022/07/22 06:59:18;;;;;;;6.90;5.97;;;28.60;47.90;;;;;;5067406;28;20452;-85
2022/07/22 07:01:54;;;;;;;6.10;5.60;;;28.60;47.90;;;;;;5049965;28;20920;-84
2022/07/22 07:07:41;;;;;;;5.70;5.10;;;28.60;47.90;;;;;;5049314;28;20835;-85
2022/07/22 07:10:09;;;;;;;5.67;5.07;;;28.60;47.90;;;;;;5068185;28;20386;-84
2022/07/22 07:12:39;;;;;;;5.90;5.40;;;28.60;47.90;;;;;;5067630;28;20171;-85
2022/07/22 07:15:06;;;;;;;7.07;6.37;;;28.60;47.90;;;;;;5049529;28;20421;-84
2022/07/22 07:17:38;;;;;;;5.50;5.10;;;28.70;47.90;;;;;;5033208;28;20183;-84
2022/07/22 07:27:15;;;;;;;5.53;5.03;;;28.60;47.90;;;;;;4966519;29;20420;-84
2022/07/22 07:33:07;;;;;;;;;;;;;;;;;;;;;
2022/07/22 07:42:41;;;;;;;5.90;5.30;;;28.70;47.90;;;;;;4912602;29;20376;-88
2022/07/22 07:52:13;;;;;;;5.20;4.80;;;28.70;48.00;;;;;;4901104;29;20398;-83
2022/07/22 07:54:52;;;;;;;6.20;5.20;;;28.70;48.10;;;;;;4885370;29;20445;-83
2022/07/22 07:57:21;;;;;;;4.93;4.53;;;28.60;48.00;;;;;;4906966;29;20437;-83
2022/07/22 08:00:08;;;;;;;5.23;4.70;;;28.70;48.10;;;;;;4918465;29;20416;-83
2022/07/22 08:02:51;;;;;;;5.40;4.90;;;28.70;48.10;;;;;;4919034;29;20452;-83
2022/07/22 08:05:19;;;;;;;5.30;4.90;;;28.70;48.10;;;;;;4919586;29;20420;-82
2022/07/22 08:11:47;;;;;;;5.00;4.60;;;28.70;48.00;;;;;;4976234;28;20401;-82
2022/07/22 08:14:19;;;;;;;5.67;5.10;;;28.70;48.10;;;;;;4959760;29;20420;-83
2022/07/22 08:17:21;;;;;;;;;;;;;;;;;;;;;
2022/07/22 08:19:59;;;;;;;5.50;5.00;;;28.70;48.10;;;;;;4975503;29;20442;-83
2022/07/22 08:23:04;;;;;;;5.80;5.30;;;28.70;48.20;;;;;;4959202;29;20739;-84
2022/07/22 08:25:55;;;;;;;5.53;5.03;;;28.70;48.20;;;;;;5002242;28;20439;-84
2022/07/22 08:32:11;;;;;;;5.00;4.60;;;28.70;48.30;;;;;;4976343;29;20461;-83
2022/07/22 08:41:39;;;;;;;5.80;5.23;;;28.60;48.20;;;;;;4958279;28;20443;-83
2022/07/22 08:44:23;;;;;;;5.70;5.10;;;28.60;48.30;;;;;;4941971;29;20478;-83
2022/07/22 08:47:20;;;;;;;5.80;5.20;;;28.60;48.30;;;;;;4942476;29;20415;-84
2022/07/22 08:49:49;;;;;;;5.83;5.27;;;28.70;48.30;;;;;;4942440;29;20415;-84
2022/07/22 08:52:22;;;;;;;5.43;4.93;;;28.70;48.30;;;;;;4942765;29;20502;-83
2022/07/22 08:58:00;;;;;;;5.17;4.77;;;28.70;48.30;;;;;;4959025;29;20434;-83
2022/07/22 09:00:35;;;;;;;6.40;4.90;;;28.70;48.30;;;;;;4941668;29;20470;-84
2022/07/22 09:03:30;;;;;;;5.97;5.37;;;28.70;48.30;;;;;;4941157;29;20462;-83
2022/07/22 09:05:59;;;;;;;6.00;5.50;;;28.70;48.30;;;;;;4957964;29;20406;-83
2022/07/22 09:08:58;;;;;;;;;;;;;;;;;;;;;
2022/07/22 09:11:30;;;;;;;6.00;5.40;;;28.70;48.40;;;;;;5071201;28;20433;-85
2022/07/22 09:20:51;;;;;;;5.10;4.67;;;28.70;48.40;;;;;;5013350;28;20415;-83
2022/07/22 09:23:27;;;;;;;4.90;4.50;;;28.70;48.40;;;;;;4996516;28;20456;-83
2022/07/22 09:26:00;;;;;;;4.90;4.50;;;28.70;48.40;;;;;;4996532;28;20531;-82
2022/07/22 09:28:30;;;;;;;5.30;4.80;;;28.70;48.40;;;;;;4994584;28;20536;-83
2022/07/22 09:31:05;;;;;;;5.67;5.17;;;28.70;48.40;;;;;;4995061;28;20443;-84
2022/07/22 09:33:44;;;;;;;5.83;4.87;;;28.70;48.40;;;;;;4995290;28;20500;-84
2022/07/22 09:36:10;;;;;;;5.20;4.70;;;28.70;48.40;;;;;;4994072;28;20456;-84
2022/07/22 09:38:47;;;;;;;;;;;;;;;;;;;;;
2022/07/22 09:41:30;;;;;;;;;;;;;;;;;;;;;
2022/07/22 09:47:51;;;;;;;6.10;5.60;;;28.70;48.40;;;;;;4988045;28;20421;-83
2022/07/22 09:50:44;;;;;;;5.10;4.70;;;28.70;48.40;;;;;;5011612;28;20444;-84
2022/07/22 09:56:37;;;;;;;4.90;4.43;;;28.70;48.40;;;;;;4954324;29;20414;-82
2022/07/22 09:59:04;;;;;;;6.63;5.00;;;28.70;48.40;;;;;;4954943;29;20450;-83
2022/07/22 10:01:40;;;;;;;;;;;;;;;;;;;;;
2022/07/22 10:10:51;;;;;;;5.10;4.70;;;28.70;48.40;;;;;;4955512;29;20387;-83
2022/07/22 10:13:20;;;;;;;6.20;5.60;;;28.70;48.50;;;;;;4938994;29;20423;-84
2022/07/22 10:15:53;;;;;;;4.70;4.20;;;28.70;48.50;;;;;;4938645;29;20422;-83
2022/07/22 10:18:36;;;;;;;5.30;4.83;;;28.70;48.40;;;;;;4955057;29;20406;-83
2022/07/22 10:21:25;;;;;;;5.37;4.90;;;28.70;48.40;;;;;;4964428;28;20412;-83
2022/07/22 10:24:17;;;;;;;5.37;4.87;;;28.70;49.00;;;;;;5007308;28;20456;-82
2022/07/22 10:33:19;;;;;;;4.90;4.43;;;28.70;48.40;;;;;;5043416;28;20412;-83
2022/07/22 10:36:04;;;;;;;4.60;4.20;;;28.70;48.40;;;;;;5074507;28;20390;-82
2022/07/22 10:38:35;;;;;;;5.83;5.30;;;28.70;48.40;;;;;;5041093;28;20402;-83
2022/07/22 10:47:59;;;;;;;4.90;4.50;;;28.70;48.40;;;;;;4972418;28;20595;-82
2022/07/22 10:50:43;;;;;;;5.50;5.00;;;28.70;48.50;;;;;;4955679;29;20442;-83
2022/07/22 10:53:45;;;;;;;5.20;4.70;;;28.70;48.50;;;;;;4953082;29;20419;-83
2022/07/22 10:56:29;;;;;;;4.90;4.50;;;28.70;48.50;;;;;;4936013;29;20424;-82
2022/07/22 10:59:25;;;;;;;;;;;;;;;;;;;;;
2022/07/22 11:15:43;;;;;;;;;;;;;;;;;;;;;
2022/07/22 11:18:39;;;;;;;;;;;;;;;;;;;;;
2022/07/22 11:21:01;;;;;;;5.57;5.00;;;28.70;48.60;;;;;;4914251;29;20405;-83
2022/07/22 11:23:28;;;;;;;4.63;4.23;;;28.70;48.50;;;;;;4906178;29;20466;-83
2022/07/22 11:26:16;;;;;;;5.80;5.30;;;28.70;48.60;;;;;;4935991;29;20482;-84
2022/07/22 11:28:53;;;;;;;5.80;5.30;;;28.70;48.50;;;;;;4935705;29;20443;-83
2022/07/22 11:31:21;;;;;;;5.87;5.37;;;28.70;48.50;;;;;;4937124;29;20411;-83
2022/07/22 11:34:22;;;;;;;;;;;;;;;;;;;;;
2022/07/22 11:37:34;;;;;;;;;;;;;;;;;;;;;
2022/07/22 11:40:22;;;;;;;;;;;;;;;;;;;;;
2022/07/22 11:50:37;;;;;;;6.40;5.80;;;28.80;48.70;;;;;;4959529;29;20402;-82
2022/07/22 11:53:05;;;;;;;6.63;5.90;;;28.70;48.60;;;;;;4964327;28;20906;-83
2022/07/22 11:55:48;;;;;;;;;;;;;;;;;;;;;
2022/07/22 12:01:46;;;;;;;5.83;5.33;;;28.80;48.70;;;;;;4992093;28;20382;-84
2022/07/22 12:04:53;;;;;;;6.00;5.50;;;28.80;48.70;;;;;;4974767;28;20468;-83
2022/07/22 12:07:57;;;;;;;5.63;5.13;;;28.80;48.70;;;;;;4951413;29;20415;-84
2022/07/22 12:10:53;;;;;;;;;;;;;;;;;;;;;
2022/07/22 12:13:49;;;;;;;6.83;6.23;;;28.80;48.70;;;;;;4951495;29;20419;-83
2022/07/22 12:16:51;;;;;;;6.80;5.90;;;28.80;48.70;;;;;;4938114;29;20474;-83
2022/07/22 12:19:20;;;;;;;7.03;5.73;;;28.80;48.70;;;;;;4951771;29;20418;-83
2022/07/22 12:22:06;;;;;;;6.23;5.63;;;28.80;48.80;;;;;;4956462;29;20402;-83
2022/07/22 12:25:00;;;;;;;6.80;6.23;;;28.80;48.70;;;;;;4971547;29;20445;-83
2022/07/22 12:28:01;;;;;;;7.80;5.67;;;28.90;48.80;;;;;;4942371;29;20868;-83
2022/07/22 12:30:27;;;;;;;6.10;5.50;;;28.80;48.70;;;;;;4962804;29;20390;-83
2022/07/22 12:32:59;;;;;;;8.23;7.30;;;28.80;48.70;;;;;;4959922;29;20420;-83
2022/07/22 12:35:27;;;;;;;6.00;5.40;;;28.80;48.70;;;;;;4975755;29;20209;-83
2022/07/22 12:37:53;;;;;;;6.23;5.57;;;28.80;48.70;;;;;;5010351;28;20413;-83
2022/07/22 12:40:40;;;;;;;7.33;6.30;;;28.80;48.70;;;;;;5054807;28;20410;-83
2022/07/22 12:43:36;;;;;;;6.07;5.47;;;28.80;48.70;;;;;;5037614;28;20484;-83
2022/07/22 12:47:01;;;;;;;6.60;6.00;;;28.90;48.70;;;;;;5037186;28;20431;-83
2022/07/22 12:59:55;;;;;;;5.80;5.30;;;28.80;48.70;;;;;;4956396;28;20398;-83
2022/07/22 13:02:30;;;;;;;6.60;5.43;;;28.80;48.80;;;;;;4939447;29;20490;-83
2022/07/22 13:05:33;;;;;;;5.80;5.30;;;28.80;48.70;;;;;;4939779;29;20447;-83
2022/07/22 13:08:45;;;;;;;5.63;5.17;;;28.80;48.70;;;;;;4955787;29;20402;-82
2022/07/22 13:11:39;;;;;;;5.70;5.20;;;28.80;48.70;;;;;;4939081;29;20486;-83
2022/07/22 13:14:11;;;;;;;5.60;5.10;;;28.80;48.70;;;;;;4955469;29;20713;-82
2022/07/22 13:16:56;;;;;;;8.20;5.47;;;28.80;48.70;;;;;;4955865;29;20419;-82
2022/07/22 13:19:43;;;;;;;5.83;5.33;;;28.80;48.70;;;;;;4965199;28;20420;-81
2022/07/22 13:22:19;;;;;;;6.27;5.77;;;28.80;48.70;;;;;;4999092;28;20424;-82
2022/07/22 13:27:50;;;;;;;5.63;5.13;;;28.90;48.70;;;;;;4993968;28;20400;-83
2022/07/22 13:30:19;;;;;;;5.37;4.97;;;28.80;48.60;;;;;;4961998;28;20412;-82
2022/07/22 13:32:50;;;;;;;5.90;5.30;;;28.90;48.70;;;;;;4978134;28;20441;-82
2022/07/22 13:35:26;;;;;;;5.30;4.80;;;28.90;48.70;;;;;;4977835;28;20476;-83
2022/07/22 13:37:52;;;;;;;6.27;5.67;;;28.90;48.70;;;;;;4977612;28;20425;-83
2022/07/22 13:40:27;;;;;;;5.13;4.70;;;28.90;48.60;;;;;;4977194;28;20827;-83
2022/07/22 13:43:23;;;;;;;6.90;5.83;;;28.90;48.60;;;;;;4961061;28;20487;-82
2022/07/22 13:48:45;;;;;;;4.97;4.57;;;28.90;48.60;;;;;;4966288;28;20433;-82
2022/07/22 13:51:11;;;;;;;6.03;5.17;;;28.90;48.60;;;;;;4977813;28;20409;-82
2022/07/22 13:54:21;;;;;;;5.97;5.47;;;28.90;48.60;;;;;;4976970;28;20429;-82
2022/07/22 13:56:51;;;;;;;5.77;5.17;;;28.90;48.60;;;;;;4993677;28;20424;-82
2022/07/22 13:59:18;;;;;;;6.57;5.97;;;28.90;48.70;;;;;;4993590;28;20413;-83
2022/07/22 14:02:00;;;;;;;5.57;5.07;;;28.90;48.70;;;;;;4960325;28;20421;-81
2022/07/22 14:04:31;;;;;;;6.20;5.43;;;28.90;48.70;;;;;;5018839;28;20462;-82
2022/07/22 14:06:58;;;;;;;6.50;5.90;;;28.90;48.70;;;;;;5036282;28;20411;-82
2022/07/22 14:09:36;;;;;;;5.40;5.00;;;28.90;48.70;;;;;;5036132;28;20425;-83
2022/07/22 14:12:06;;;;;;;6.13;5.17;;;28.90;48.60;;;;;;5036476;28;20402;-82
2022/07/22 14:14:35;;;;;;;5.57;5.07;;;28.90;48.60;;;;;;5020489;28;20426;-82
2022/07/22 14:17:03;;;;;;;5.50;5.03;;;28.90;48.70;;;;;;5053725;28;20403;-83
2022/07/22 14:19:32;;;;;;;5.90;5.27;;;28.90;48.60;;;;;;5053295;28;20417;-82
2022/07/22 14:22:02;;;;;;;5.37;4.87;;;28.90;48.60;;;;;;5035771;28;20445;-81
2022/07/22 14:24:32;;;;;;;5.53;5.03;;;28.80;48.60;;;;;;5035150;28;20938;-82
2022/07/22 14:26:59;;;;;;;6.03;5.50;;;28.90;48.60;;;;;;5035868;28;20399;-82
2022/07/22 14:29:28;;;;;;;5.97;5.40;;;28.90;48.60;;;;;;5035305;28;20418;-83
2022/07/22 14:32:05;;;;;;;6.07;5.30;;;28.90;48.60;;;;;;5053629;28;20437;-82
2022/07/22 14:34:32;;;;;;;5.27;4.77;;;28.90;48.60;;;;;;5054880;28;20425;-82
2022/07/22 14:37:00;;;;;;;6.10;5.50;;;28.90;48.60;;;;;;5053598;28;20445;-82
2022/07/22 14:42:59;;;;;;;5.83;5.23;;;28.90;48.60;;;;;;5055370;28;20476;-82
2022/07/22 14:45:32;;;;;;;5.63;5.13;;;28.80;48.60;;;;;;5036618;28;20506;-83
2022/07/22 14:55:23;;;;;;;7.93;5.17;;;28.90;48.70;;;;;;5013516;28;20456;-81
2022/07/22 15:04:51;;;;;;;6.33;5.00;;;28.90;48.70;;;;;;4962831;28;20482;-82
2022/07/22 15:07:17;;;;;;;6.43;5.47;;;28.80;48.80;;;;;;4996894;28;20420;-82
2022/07/22 15:09:48;;;;;;;5.20;4.70;;;28.90;48.80;;;;;;4996457;28;20428;-80
2022/07/22 15:12:24;;;;;;;5.20;4.70;;;28.90;48.80;;;;;;4995794;28;20424;-82
2022/07/22 15:15:07;;;;;;;5.43;4.93;;;28.90;48.80;;;;;;4981643;28;20522;-80
2022/07/22 15:17:37;;;;;;;5.50;5.00;;;28.90;48.80;;;;;;4996790;28;20413;-81
2022/07/22 15:20:13;;;;;;;5.20;4.80;;;28.90;48.80;;;;;;5012552;28;20408;-81
2022/07/22 15:22:39;;;;;;;5.57;5.07;;;29.00;48.80;;;;;;5051571;28;20417;-82
2022/07/22 15:25:46;;;;;;;5.40;4.90;;;28.90;48.70;;;;;;5053195;28;20913;-81
2022/07/22 15:28:13;;;;;;;5.67;5.17;;;29.00;48.80;;;;;;5035146;28;20413;-80
2022/07/22 15:30:45;;;;;;;5.43;4.83;;;28.90;48.70;;;;;;5019843;28;20415;-83
2022/07/22 15:33:12;;;;;;;5.83;5.33;;;28.90;48.70;;;;;;5036728;28;20406;-82
2022/07/22 15:35:39;;;;;;;5.00;4.60;;;28.90;48.70;;;;;;5036278;28;20422;-82
2022/07/22 15:38:15;;;;;;;5.43;4.93;;;28.90;48.70;;;;;;5053809;28;20425;-81
2022/07/22 15:40:42;;;;;;;5.03;4.53;;;29.00;48.80;;;;;;5037665;28;20411;-82
2022/07/22 15:43:09;;;;;;;6.07;5.57;;;29.00;48.80;;;;;;5054423;28;20503;-82
2022/07/22 15:45:36;;;;;;;5.37;4.90;;;29.00;48.80;;;;;;5037705;28;20420;-82
2022/07/22 15:55:01;;;;;;;5.37;4.87;;;29.00;48.70;;;;;;5054016;28;20505;-81
2022/07/22 16:00:20;;;;;;;5.07;4.57;;;28.90;48.80;;;;;;5065821;28;20413;-82
2022/07/22 16:02:48;;;;;;;5.27;4.77;;;28.90;48.80;;;;;;5056399;28;20511;-84
2022/07/22 16:05:16;;;;;;;5.50;5.00;;;29.00;48.90;;;;;;5077358;28;20401;-82
2022/07/22 16:07:45;;;;;;;5.00;4.60;;;29.00;48.90;;;;;;5076477;28;20417;-82
2022/07/22 16:10:20;;;;;;;5.30;4.90;;;29.00;48.80;;;;;;5075420;28;20406;-82
2022/07/22 16:12:46;;;;;;;5.30;4.80;;;29.00;48.80;;;;;;5060229;28;20405;-81
2022/07/22 16:15:16;;;;;;;5.80;5.30;;;29.00;48.80;;;;;;5060376;28;20433;-82
2022/07/22 16:17:42;;;;;;;5.07;4.60;;;29.00;48.80;;;;;;5060022;28;20424;-80
2022/07/22 16:20:09;;;;;;;6.17;5.20;;;29.00;48.80;;;;;;5060652;28;20413;-80
2022/07/22 16:22:45;;;;;;;6.13;5.30;;;29.00;48.80;;;;;;5074086;28;20420;-81
2022/07/22 16:25:54;;;;;;;5.30;4.90;;;29.00;48.80;;;;;;5078026;28;20444;-81
2022/07/22 16:28:32;;;;;;;5.27;4.70;;;29.00;48.80;;;;;;5077359;28;20410;-82
2022/07/22 16:31:02;;;;;;;5.10;4.57;;;29.00;48.80;;;;;;5059729;28;20420;-80
2022/07/22 16:33:36;;;;;;;5.20;4.70;;;29.00;48.80;;;;;;5077087;28;20441;-81
2022/07/22 16:36:07;;;;;;;5.10;4.70;;;29.00;48.80;;;;;;5077580;28;20416;-81
2022/07/22 16:38:36;;;;;;;4.80;4.40;;;28.90;48.70;;;;;;5077995;28;20393;-81
2022/07/22 16:41:06;;;;;;;4.70;4.20;;;29.00;48.70;;;;;;5060537;28;20394;-81
2022/07/22 16:43:33;;;;;;;5.40;4.90;;;29.00;48.70;;;;;;5077303;28;20507;-81